sensor_id;sensor_type;location;lat;lon;timestamp;P1;durP1;ratioP1;P2;durP2;ratioP2
18334;SDS011;9293;49.524;10.964;2023-02-13T00:01:24;40.72;;;25.70;;
18334;SDS011;9293;49.524;10.964;2023-02-13T00:03:52;41.28;;;24.65;;
18334;SDS011;9293;49.524;10.964;2023-02-13T00:06:20;42.70;;;25.27;;
18334;SDS011;9293;49.524;10.964;2023-02-13T00:08:48;46.22;;;25.60;;
18334;SDS011;9293;49.524;10.964;2023-02-13T00:11:16;39.40;;;24.52;;
18334;SDS011;9293;49.524;10.964;2023-02-13T00:13:45;40.83;;;24.50;;
18334;SDS011;9293;49.524;10.964;2023-02-13T00:16:12;45.35;;;26.67;;
18334;SDS011;9293;49.524;10.964;2023-02-13T00:18:40;41.35;;;24.05;;
18334;SDS011;9293;49.524;10.964;2023-02-13T00:21:10;37.45;;;22.23;;
18334;SDS011;9293;49.524;10.964;2023-02-13T00:23:39;42.85;;;24.85;;
18334;SDS011;9293;49.524;10.964;2023-02-13T00:26:08;42.50;;;25.77;;
18334;SDS011;9293;49.524;10.964;2023-02-13T00:28:42;41.45;;;23.92;;
18334;SDS011;9293;49.524;10.964;2023-02-13T00:31:12;38.13;;;22.67;;
18334;SDS011;9293;49.524;10.964;2023-02-13T00:33:43;34.03;;;21.67;;
18334;SDS011;9293;49.524;10.964;2023-02-13T00:36:12;45.20;;;25.27;;
18334;SDS011;9293;49.524;10.964;2023-02-13T00:38:45;40.70;;;24.30;;
18334;SDS011;9293;49.524;10.964;2023-02-13T00:41:13;38.15;;;22.92;;
18334;SDS011;9293;49.524;10.964;2023-02-13T00:43:45;40.33;;;24.80;;
18334;SDS011;9293;49.524;10.964;2023-02-13T00:46:14;40.72;;;25.15;;
18334;SDS011;9293;49.524;10.964;2023-02-13T00:48:43;44.58;;;25.80;;
18334;SDS011;9293;49.524;10.964;2023-02-13T00:51:11;51.35;;;27.58;;
18334;SDS011;9293;49.524;10.964;2023-02-13T00:53:39;43.75;;;24.23;;
18334;SDS011;9293;49.524;10.964;2023-02-13T00:56:07;51.97;;;26.70;;
18334;SDS011;9293;49.524;10.964;2023-02-13T00:58:35;43.50;;;23.50;;
18334;SDS011;9293;49.524;10.964;2023-02-13T01:01:03;45.00;;;24.30;;
18334;SDS011;9293;49.524;10.964;2023-02-13T01:03:33;60.17;;;26.40;;
18334;SDS011;9293;49.524;10.964;2023-02-13T01:06:11;67.78;;;27.35;;
18334;SDS011;9293;49.524;10.964;2023-02-13T01:08:40;208.43;;;32.03;;
18334;SDS011;9293;49.524;10.964;2023-02-13T01:11:08;315.98;;;39.78;;
18334;SDS011;9293;49.524;10.964;2023-02-13T01:13:36;299.25;;;45.10;;
18334;SDS011;9293;49.524;10.964;2023-02-13T01:16:04;141.70;;;33.00;;
18334;SDS011;9293;49.524;10.964;2023-02-13T01:18:32;426.65;;;54.67;;
18334;SDS011;9293;49.524;10.964;2023-02-13T01:21:05;182.10;;;38.47;;
18334;SDS011;9293;49.524;10.964;2023-02-13T01:23:35;229.40;;;46.58;;
18334;SDS011;9293;49.524;10.964;2023-02-13T01:26:05;175.60;;;41.80;;
18334;SDS011;9293;49.524;10.964;2023-02-13T01:28:35;157.05;;;40.22;;
18334;SDS011;9293;49.524;10.964;2023-02-13T01:31:03;189.80;;;40.47;;
18334;SDS011;9293;49.524;10.964;2023-02-13T01:33:31;179.52;;;42.50;;
18334;SDS011;9293;49.524;10.964;2023-02-13T01:35:59;97.75;;;36.58;;
18334;SDS011;9293;49.524;10.964;2023-02-13T01:38:32;227.23;;;44.85;;
18334;SDS011;9293;49.524;10.964;2023-02-13T01:41:00;216.35;;;41.28;;
18334;SDS011;9293;49.524;10.964;2023-02-13T01:46:26;593.40;;;64.20;;
18334;SDS011;9293;49.524;10.964;2023-02-13T01:48:57;574.75;;;69.10;;
18334;SDS011;9293;49.524;10.964;2023-02-13T01:51:30;374.90;;;51.08;;
18334;SDS011;9293;49.524;10.964;2023-02-13T01:54:07;305.17;;;46.42;;
18334;SDS011;9293;49.524;10.964;2023-02-13T01:56:39;540.72;;;64.50;;
18334;SDS011;9293;49.524;10.964;2023-02-13T01:59:19;562.85;;;66.30;;
18334;SDS011;9293;49.524;10.964;2023-02-13T02:01:50;441.40;;;59.47;;
18334;SDS011;9293;49.524;10.964;2023-02-13T02:04:22;579.67;;;70.45;;
18334;SDS011;9293;49.524;10.964;2023-02-13T02:06:56;638.58;;;71.28;;
18334;SDS011;9293;49.524;10.964;2023-02-13T02:09:31;520.30;;;65.65;;
18334;SDS011;9293;49.524;10.964;2023-02-13T02:14:37;262.13;;;46.42;;
18334;SDS011;9293;49.524;10.964;2023-02-13T02:17:12;212.38;;;40.50;;
18334;SDS011;9293;49.524;10.964;2023-02-13T02:19:43;171.13;;;40.08;;
18334;SDS011;9293;49.524;10.964;2023-02-13T02:47:58;126.53;;;36.50;;
18334;SDS011;9293;49.524;10.964;2023-02-13T02:51:02;117.72;;;37.15;;
18334;SDS011;9293;49.524;10.964;2023-02-13T02:56:12;138.90;;;36.97;;
18334;SDS011;9293;49.524;10.964;2023-02-13T02:59:01;121.80;;;33.03;;
18334;SDS011;9293;49.524;10.964;2023-02-13T03:01:52;136.18;;;31.83;;
18334;SDS011;9293;49.524;10.964;2023-02-13T03:04:45;167.52;;;35.80;;
18334;SDS011;9293;49.524;10.964;2023-02-13T03:07:35;219.13;;;39.83;;
18334;SDS011;9293;49.524;10.964;2023-02-13T03:10:08;321.27;;;48.58;;
18334;SDS011;9293;49.524;10.964;2023-02-13T03:13:00;371.83;;;54.42;;
18334;SDS011;9293;49.524;10.964;2023-02-13T03:15:50;298.92;;;50.65;;
18334;SDS011;9293;49.524;10.964;2023-02-13T03:18:40;185.55;;;41.50;;
18334;SDS011;9293;49.524;10.964;2023-02-13T03:27:42;108.65;;;31.02;;
18334;SDS011;9293;49.524;10.964;2023-02-13T03:42:06;221.25;;;38.45;;
18334;SDS011;9293;49.524;10.964;2023-02-13T03:44:55;201.07;;;36.08;;
18334;SDS011;9293;49.524;10.964;2023-02-13T03:48:00;148.35;;;33.40;;
18334;SDS011;9293;49.524;10.964;2023-02-13T03:50:37;147.13;;;31.98;;
18334;SDS011;9293;49.524;10.964;2023-02-13T03:53:11;205.68;;;39.05;;
18334;SDS011;9293;49.524;10.964;2023-02-13T03:55:42;146.65;;;32.38;;
18334;SDS011;9293;49.524;10.964;2023-02-13T03:58:36;108.95;;;30.25;;
18334;SDS011;9293;49.524;10.964;2023-02-13T04:01:28;298.73;;;43.08;;
18334;SDS011;9293;49.524;10.964;2023-02-13T04:04:02;164.65;;;33.38;;
18334;SDS011;9293;49.524;10.964;2023-02-13T04:06:42;100.38;;;27.27;;
18334;SDS011;9293;49.524;10.964;2023-02-13T04:09:19;112.55;;;30.00;;
18334;SDS011;9293;49.524;10.964;2023-02-13T04:11:55;113.82;;;29.27;;
18334;SDS011;9293;49.524;10.964;2023-02-13T04:14:54;104.32;;;28.60;;
18334;SDS011;9293;49.524;10.964;2023-02-13T04:18:12;144.27;;;29.77;;
18334;SDS011;9293;49.524;10.964;2023-02-13T04:20:25;140.95;;;27.27;;
18334;SDS011;9293;49.524;10.964;2023-02-13T04:22:54;149.10;;;25.92;;
18334;SDS011;9293;49.524;10.964;2023-02-13T04:25:22;141.98;;;27.23;;
18334;SDS011;9293;49.524;10.964;2023-02-13T04:27:50;101.13;;;28.52;;
18334;SDS011;9293;49.524;10.964;2023-02-13T04:30:18;129.80;;;31.63;;
18334;SDS011;9293;49.524;10.964;2023-02-13T04:32:46;81.60;;;26.65;;
18334;SDS011;9293;49.524;10.964;2023-02-13T04:35:14;89.78;;;24.95;;
18334;SDS011;9293;49.524;10.964;2023-02-13T04:37:42;88.55;;;24.95;;
18334;SDS011;9293;49.524;10.964;2023-02-13T04:40:10;105.28;;;23.60;;
18334;SDS011;9293;49.524;10.964;2023-02-13T04:42:38;101.97;;;24.35;;
18334;SDS011;9293;49.524;10.964;2023-02-13T04:45:07;79.63;;;22.75;;
18334;SDS011;9293;49.524;10.964;2023-02-13T04:47:35;101.22;;;25.92;;
18334;SDS011;9293;49.524;10.964;2023-02-13T04:50:03;99.68;;;24.58;;
18334;SDS011;9293;49.524;10.964;2023-02-13T04:52:31;93.35;;;25.83;;
18334;SDS011;9293;49.524;10.964;2023-02-13T04:54:59;81.55;;;24.77;;
18334;SDS011;9293;49.524;10.964;2023-02-13T04:57:27;90.07;;;28.10;;
18334;SDS011;9293;49.524;10.964;2023-02-13T04:59:55;103.07;;;27.30;;
18334;SDS011;9293;49.524;10.964;2023-02-13T05:02:23;114.00;;;40.72;;
18334;SDS011;9293;49.524;10.964;2023-02-13T05:04:51;64.45;;;23.65;;
18334;SDS011;9293;49.524;10.964;2023-02-13T05:07:19;54.83;;;22.33;;
18334;SDS011;9293;49.524;10.964;2023-02-13T05:09:47;62.85;;;22.40;;
18334;SDS011;9293;49.524;10.964;2023-02-13T05:12:21;47.45;;;22.23;;
18334;SDS011;9293;49.524;10.964;2023-02-13T05:14:52;58.25;;;22.20;;
18334;SDS011;9293;49.524;10.964;2023-02-13T05:17:20;58.95;;;22.90;;
18334;SDS011;9293;49.524;10.964;2023-02-13T05:19:48;56.40;;;22.98;;
18334;SDS011;9293;49.524;10.964;2023-02-13T05:22:16;55.80;;;23.23;;
18334;SDS011;9293;49.524;10.964;2023-02-13T05:25:02;67.95;;;25.90;;
18334;SDS011;9293;49.524;10.964;2023-02-13T05:27:31;135.25;;;32.92;;
18334;SDS011;9293;49.524;10.964;2023-02-13T05:29:58;185.02;;;34.10;;
18334;SDS011;9293;49.524;10.964;2023-02-13T05:32:26;140.70;;;26.75;;
18334;SDS011;9293;49.524;10.964;2023-02-13T05:34:54;104.90;;;26.35;;
18334;SDS011;9293;49.524;10.964;2023-02-13T05:37:22;115.82;;;28.17;;
18334;SDS011;9293;49.524;10.964;2023-02-13T05:39:50;210.27;;;39.25;;
18334;SDS011;9293;49.524;10.964;2023-02-13T05:42:18;173.40;;;30.88;;
18334;SDS011;9293;49.524;10.964;2023-02-13T05:44:46;58.15;;;24.25;;
18334;SDS011;9293;49.524;10.964;2023-02-13T05:47:14;64.53;;;24.83;;
18334;SDS011;9293;49.524;10.964;2023-02-13T05:49:42;78.85;;;23.77;;
18334;SDS011;9293;49.524;10.964;2023-02-13T05:52:10;60.80;;;22.65;;
18334;SDS011;9293;49.524;10.964;2023-02-13T05:54:38;140.75;;;31.38;;
18334;SDS011;9293;49.524;10.964;2023-02-13T05:57:06;110.10;;;24.77;;
18334;SDS011;9293;49.524;10.964;2023-02-13T05:59:34;87.38;;;24.27;;
18334;SDS011;9293;49.524;10.964;2023-02-13T06:02:02;73.72;;;27.02;;
18334;SDS011;9293;49.524;10.964;2023-02-13T06:04:30;92.50;;;33.30;;
18334;SDS011;9293;49.524;10.964;2023-02-13T06:06:58;120.18;;;26.33;;
18334;SDS011;9293;49.524;10.964;2023-02-13T06:09:26;69.88;;;22.20;;
18334;SDS011;9293;49.524;10.964;2023-02-13T06:11:54;119.57;;;24.45;;
18334;SDS011;9293;49.524;10.964;2023-02-13T06:14:22;173.15;;;23.25;;
18334;SDS011;9293;49.524;10.964;2023-02-13T06:16:50;137.82;;;24.08;;
18334;SDS011;9293;49.524;10.964;2023-02-13T06:19:18;184.73;;;23.58;;
18334;SDS011;9293;49.524;10.964;2023-02-13T06:21:46;138.70;;;24.20;;
18334;SDS011;9293;49.524;10.964;2023-02-13T06:24:13;89.40;;;23.38;;
18334;SDS011;9293;49.524;10.964;2023-02-13T06:26:41;128.85;;;24.80;;
18334;SDS011;9293;49.524;10.964;2023-02-13T06:29:09;129.88;;;24.42;;
18334;SDS011;9293;49.524;10.964;2023-02-13T06:31:39;94.97;;;20.48;;
18334;SDS011;9293;49.524;10.964;2023-02-13T06:34:07;144.20;;;20.48;;
18334;SDS011;9293;49.524;10.964;2023-02-13T06:36:35;143.10;;;22.55;;
18334;SDS011;9293;49.524;10.964;2023-02-13T06:39:04;90.20;;;20.70;;
18334;SDS011;9293;49.524;10.964;2023-02-13T06:41:32;109.32;;;19.50;;
18334;SDS011;9293;49.524;10.964;2023-02-13T06:44:00;117.90;;;22.80;;
18334;SDS011;9293;49.524;10.964;2023-02-13T06:46:28;81.78;;;18.42;;
18334;SDS011;9293;49.524;10.964;2023-02-13T06:48:56;85.07;;;16.77;;
18334;SDS011;9293;49.524;10.964;2023-02-13T06:51:24;131.95;;;17.85;;
18334;SDS011;9293;49.524;10.964;2023-02-13T06:53:52;87.18;;;16.70;;
18334;SDS011;9293;49.524;10.964;2023-02-13T06:56:20;98.13;;;17.00;;
18334;SDS011;9293;49.524;10.964;2023-02-13T06:58:48;80.47;;;16.88;;
18334;SDS011;9293;49.524;10.964;2023-02-13T07:01:17;64.40;;;15.27;;
18334;SDS011;9293;49.524;10.964;2023-02-13T07:03:45;40.15;;;15.02;;
18334;SDS011;9293;49.524;10.964;2023-02-13T07:06:18;122.10;;;17.92;;
18334;SDS011;9293;49.524;10.964;2023-02-13T07:08:49;54.92;;;15.10;;
18334;SDS011;9293;49.524;10.964;2023-02-13T07:11:22;77.70;;;15.55;;
18334;SDS011;9293;49.524;10.964;2023-02-13T07:13:51;65.57;;;15.48;;
18334;SDS011;9293;49.524;10.964;2023-02-13T07:16:19;73.97;;;14.98;;
18334;SDS011;9293;49.524;10.964;2023-02-13T07:18:47;69.50;;;15.88;;
18334;SDS011;9293;49.524;10.964;2023-02-13T07:21:16;51.53;;;15.60;;
18334;SDS011;9293;49.524;10.964;2023-02-13T07:23:44;143.98;;;22.90;;
18334;SDS011;9293;49.524;10.964;2023-02-13T07:26:12;100.70;;;20.33;;
18334;SDS011;9293;49.524;10.964;2023-02-13T07:28:39;86.32;;;20.15;;
18334;SDS011;9293;49.524;10.964;2023-02-13T07:31:08;109.85;;;18.33;;
18334;SDS011;9293;49.524;10.964;2023-02-13T07:33:37;77.00;;;16.52;;
18334;SDS011;9293;49.524;10.964;2023-02-13T07:36:06;91.40;;;18.88;;
18334;SDS011;9293;49.524;10.964;2023-02-13T07:38:34;74.40;;;18.63;;
18334;SDS011;9293;49.524;10.964;2023-02-13T07:41:02;121.65;;;19.67;;
18334;SDS011;9293;49.524;10.964;2023-02-13T07:43:33;102.82;;;17.95;;
18334;SDS011;9293;49.524;10.964;2023-02-13T07:46:02;62.55;;;16.67;;
18334;SDS011;9293;49.524;10.964;2023-02-13T07:48:30;83.82;;;16.17;;
18334;SDS011;9293;49.524;10.964;2023-02-13T07:50:58;97.45;;;18.30;;
18334;SDS011;9293;49.524;10.964;2023-02-13T07:53:28;116.07;;;17.75;;
18334;SDS011;9293;49.524;10.964;2023-02-13T07:55:56;84.50;;;16.55;;
18334;SDS011;9293;49.524;10.964;2023-02-13T07:58:24;86.75;;;16.25;;
18334;SDS011;9293;49.524;10.964;2023-02-13T08:00:53;62.72;;;16.30;;
18334;SDS011;9293;49.524;10.964;2023-02-13T08:03:22;69.22;;;16.40;;
18334;SDS011;9293;49.524;10.964;2023-02-13T08:05:50;50.78;;;15.05;;
18334;SDS011;9293;49.524;10.964;2023-02-13T08:08:18;63.17;;;14.40;;
18334;SDS011;9293;49.524;10.964;2023-02-13T08:10:46;69.72;;;13.65;;
18334;SDS011;9293;49.524;10.964;2023-02-13T08:13:33;50.35;;;14.18;;
18334;SDS011;9293;49.524;10.964;2023-02-13T08:16:04;58.45;;;13.50;;
18334;SDS011;9293;49.524;10.964;2023-02-13T08:18:35;66.15;;;13.60;;
18334;SDS011;9293;49.524;10.964;2023-02-13T08:21:04;64.68;;;15.23;;
18334;SDS011;9293;49.524;10.964;2023-02-13T08:23:32;45.13;;;14.85;;
18334;SDS011;9293;49.524;10.964;2023-02-13T08:26:01;94.90;;;16.52;;
18334;SDS011;9293;49.524;10.964;2023-02-13T08:28:29;85.25;;;15.95;;
18334;SDS011;9293;49.524;10.964;2023-02-13T08:30:57;142.50;;;18.38;;
18334;SDS011;9293;49.524;10.964;2023-02-13T08:33:28;74.60;;;15.93;;
18334;SDS011;9293;49.524;10.964;2023-02-13T08:35:56;120.60;;;16.13;;
18334;SDS011;9293;49.524;10.964;2023-02-13T08:38:25;57.80;;;15.45;;
18334;SDS011;9293;49.524;10.964;2023-02-13T08:40:55;125.10;;;18.02;;
18334;SDS011;9293;49.524;10.964;2023-02-13T08:43:24;139.93;;;16.85;;
18334;SDS011;9293;49.524;10.964;2023-02-13T08:45:52;286.75;;;24.25;;
18334;SDS011;9293;49.524;10.964;2023-02-13T08:48:20;121.03;;;16.30;;
18334;SDS011;9293;49.524;10.964;2023-02-13T08:50:52;206.90;;;22.58;;
18334;SDS011;9293;49.524;10.964;2023-02-13T08:53:20;119.65;;;17.13;;
18334;SDS011;9293;49.524;10.964;2023-02-13T08:55:54;97.78;;;17.42;;
18334;SDS011;9293;49.524;10.964;2023-02-13T08:58:24;97.35;;;15.30;;
18334;SDS011;9293;49.524;10.964;2023-02-13T09:00:55;66.85;;;13.98;;
18334;SDS011;9293;49.524;10.964;2023-02-13T09:03:23;52.40;;;13.15;;
18334;SDS011;9293;49.524;10.964;2023-02-13T09:05:51;111.85;;;14.60;;
18334;SDS011;9293;49.524;10.964;2023-02-13T09:08:19;45.45;;;15.88;;
18334;SDS011;9293;49.524;10.964;2023-02-13T09:10:53;138.48;;;17.98;;
18334;SDS011;9293;49.524;10.964;2023-02-13T09:13:26;85.07;;;13.93;;
18334;SDS011;9293;49.524;10.964;2023-02-13T09:15:57;66.20;;;13.98;;
18334;SDS011;9293;49.524;10.964;2023-02-13T09:18:27;57.03;;;13.93;;
18334;SDS011;9293;49.524;10.964;2023-02-13T09:21:09;44.15;;;13.15;;
18334;SDS011;9293;49.524;10.964;2023-02-13T09:23:39;43.88;;;12.95;;
18334;SDS011;9293;49.524;10.964;2023-02-13T09:26:09;57.40;;;13.85;;
18334;SDS011;9293;49.524;10.964;2023-02-13T09:28:39;58.35;;;15.10;;
18334;SDS011;9293;49.524;10.964;2023-02-13T09:31:11;63.50;;;14.52;;
18334;SDS011;9293;49.524;10.964;2023-02-13T09:33:45;44.15;;;15.23;;
18334;SDS011;9293;49.524;10.964;2023-02-13T09:36:15;66.75;;;15.07;;
18334;SDS011;9293;49.524;10.964;2023-02-13T09:38:46;48.42;;;16.05;;
18334;SDS011;9293;49.524;10.964;2023-02-13T09:41:39;39.88;;;15.18;;
18334;SDS011;9293;49.524;10.964;2023-02-13T09:44:15;48.42;;;16.65;;
18334;SDS011;9293;49.524;10.964;2023-02-13T09:49:59;105.50;;;15.82;;
18334;SDS011;9293;49.524;10.964;2023-02-13T09:52:32;80.90;;;17.20;;
18334;SDS011;9293;49.524;10.964;2023-02-13T09:55:03;63.17;;;17.67;;
18334;SDS011;9293;49.524;10.964;2023-02-13T10:00:28;34.83;;;16.30;;
18334;SDS011;9293;49.524;10.964;2023-02-13T10:03:14;60.55;;;16.95;;
18334;SDS011;9293;49.524;10.964;2023-02-13T10:17:30;60.53;;;16.48;;
18334;SDS011;9293;49.524;10.964;2023-02-13T10:20:03;25.35;;;15.73;;
18334;SDS011;9293;49.524;10.964;2023-02-13T10:22:44;33.10;;;17.42;;
18334;SDS011;9293;49.524;10.964;2023-02-13T10:25:24;42.05;;;18.13;;
18334;SDS011;9293;49.524;10.964;2023-02-13T10:27:59;48.50;;;17.83;;
18334;SDS011;9293;49.524;10.964;2023-02-13T10:30:40;24.67;;;16.65;;
18334;SDS011;9293;49.524;10.964;2023-02-13T10:33:17;26.85;;;19.17;;
18334;SDS011;9293;49.524;10.964;2023-02-13T10:38:39;28.67;;;19.45;;
18334;SDS011;9293;49.524;10.964;2023-02-13T10:46:32;34.42;;;19.42;;
18334;SDS011;9293;49.524;10.964;2023-02-13T10:49:19;38.65;;;18.00;;
18334;SDS011;9293;49.524;10.964;2023-02-13T10:52:30;30.88;;;20.67;;
18334;SDS011;9293;49.524;10.964;2023-02-13T10:58:08;27.90;;;18.30;;
18334;SDS011;9293;49.524;10.964;2023-02-13T11:03:45;24.10;;;15.73;;
18334;SDS011;9293;49.524;10.964;2023-02-13T11:06:28;29.77;;;16.45;;
18334;SDS011;9293;49.524;10.964;2023-02-13T11:08:56;26.52;;;16.30;;
18334;SDS011;9293;49.524;10.964;2023-02-13T11:14:12;47.67;;;16.55;;
18334;SDS011;9293;49.524;10.964;2023-02-13T11:16:58;21.67;;;15.20;;
18334;SDS011;9293;49.524;10.964;2023-02-13T11:19:32;20.13;;;14.63;;
18334;SDS011;9293;49.524;10.964;2023-02-13T11:22:04;26.48;;;15.60;;
18334;SDS011;9293;49.524;10.964;2023-02-13T11:25:19;22.52;;;15.82;;
18334;SDS011;9293;49.524;10.964;2023-02-13T11:27:50;21.33;;;15.73;;
18334;SDS011;9293;49.524;10.964;2023-02-13T11:35:33;21.63;;;16.08;;
18334;SDS011;9293;49.524;10.964;2023-02-13T11:38:23;22.13;;;15.27;;
18334;SDS011;9293;49.524;10.964;2023-02-13T11:41:02;20.27;;;15.07;;
18334;SDS011;9293;49.524;10.964;2023-02-13T11:46:17;19.98;;;15.20;;
18334;SDS011;9293;49.524;10.964;2023-02-13T11:51:43;36.10;;;20.98;;
18334;SDS011;9293;49.524;10.964;2023-02-13T11:59:47;18.13;;;14.00;;
18334;SDS011;9293;49.524;10.964;2023-02-13T12:04:52;15.13;;;12.70;;
18334;SDS011;9293;49.524;10.964;2023-02-13T12:07:42;14.38;;;11.55;;
18334;SDS011;9293;49.524;10.964;2023-02-13T12:12:43;16.15;;;12.90;;
18334;SDS011;9293;49.524;10.964;2023-02-13T12:15:17;14.82;;;13.30;;
18334;SDS011;9293;49.524;10.964;2023-02-13T12:18:09;17.20;;;15.25;;
18334;SDS011;9293;49.524;10.964;2023-02-13T12:24:11;17.23;;;14.13;;
18334;SDS011;9293;49.524;10.964;2023-02-13T12:38:48;16.58;;;14.77;;
18334;SDS011;9293;49.524;10.964;2023-02-13T12:47:24;14.88;;;13.38;;
18334;SDS011;9293;49.524;10.964;2023-02-13T12:53:33;14.93;;;13.43;;
18334;SDS011;9293;49.524;10.964;2023-02-13T13:04:42;14.10;;;12.60;;
18334;SDS011;9293;49.524;10.964;2023-02-13T13:07:27;17.48;;;12.30;;
18334;SDS011;9293;49.524;10.964;2023-02-13T13:10:15;15.40;;;13.35;;
18334;SDS011;9293;49.524;10.964;2023-02-13T13:12:49;12.68;;;11.32;;
18334;SDS011;9293;49.524;10.964;2023-02-13T13:15:24;19.02;;;12.80;;
18334;SDS011;9293;49.524;10.964;2023-02-13T13:26:19;13.10;;;11.10;;
18334;SDS011;9293;49.524;10.964;2023-02-13T13:29:03;20.27;;;10.50;;
18334;SDS011;9293;49.524;10.964;2023-02-13T13:31:37;11.57;;;10.48;;
18334;SDS011;9293;49.524;10.964;2023-02-13T13:34:07;15.98;;;10.13;;
18334;SDS011;9293;49.524;10.964;2023-02-13T13:36:44;13.40;;;9.60;;
18334;SDS011;9293;49.524;10.964;2023-02-13T13:39:33;13.45;;;10.82;;
18334;SDS011;9293;49.524;10.964;2023-02-13T13:42:11;12.98;;;10.80;;
18334;SDS011;9293;49.524;10.964;2023-02-13T13:44:49;26.27;;;11.27;;
18334;SDS011;9293;49.524;10.964;2023-02-13T13:47:43;18.70;;;10.88;;
18334;SDS011;9293;49.524;10.964;2023-02-13T13:50:39;11.63;;;10.15;;
18334;SDS011;9293;49.524;10.964;2023-02-13T14:03:37;12.55;;;10.40;;
18334;SDS011;9293;49.524;10.964;2023-02-13T14:06:08;12.70;;;10.20;;
18334;SDS011;9293;49.524;10.964;2023-02-13T14:11:32;14.90;;;10.20;;
18334;SDS011;9293;49.524;10.964;2023-02-13T14:14:50;11.75;;;9.90;;
18334;SDS011;9293;49.524;10.964;2023-02-13T14:24:59;13.98;;;9.80;;
18334;SDS011;9293;49.524;10.964;2023-02-13T14:27:38;17.27;;;10.13;;
18334;SDS011;9293;49.524;10.964;2023-02-13T14:30:27;12.55;;;10.20;;
18334;SDS011;9293;49.524;10.964;2023-02-13T14:33:02;11.77;;;10.30;;
18334;SDS011;9293;49.524;10.964;2023-02-13T14:35:33;11.35;;;10.25;;
18334;SDS011;9293;49.524;10.964;2023-02-13T14:38:05;16.40;;;11.25;;
18334;SDS011;9293;49.524;10.964;2023-02-13T14:46:03;16.17;;;10.65;;
18334;SDS011;9293;49.524;10.964;2023-02-13T14:51:40;11.52;;;9.90;;
18334;SDS011;9293;49.524;10.964;2023-02-13T14:57:19;13.38;;;11.82;;
18334;SDS011;9293;49.524;10.964;2023-02-13T14:59:55;13.63;;;9.73;;
18334;SDS011;9293;49.524;10.964;2023-02-13T15:02:41;12.95;;;9.63;;
18334;SDS011;9293;49.524;10.964;2023-02-13T15:05:16;10.57;;;9.48;;
18334;SDS011;9293;49.524;10.964;2023-02-13T15:07:49;13.65;;;10.80;;
18334;SDS011;9293;49.524;10.964;2023-02-13T15:15:52;12.63;;;10.70;;
18334;SDS011;9293;49.524;10.964;2023-02-13T15:18:30;14.88;;;11.55;;
18334;SDS011;9293;49.524;10.964;2023-02-13T15:21:02;13.27;;;11.63;;
18334;SDS011;9293;49.524;10.964;2023-02-13T15:23:31;15.50;;;12.73;;
18334;SDS011;9293;49.524;10.964;2023-02-13T15:26:04;15.38;;;13.20;;
18334;SDS011;9293;49.524;10.964;2023-02-13T15:28:35;15.77;;;12.50;;
18334;SDS011;9293;49.524;10.964;2023-02-13T15:31:20;15.80;;;13.60;;
18334;SDS011;9293;49.524;10.964;2023-02-13T15:33:50;16.48;;;13.50;;
18334;SDS011;9293;49.524;10.964;2023-02-13T15:36:19;17.45;;;12.85;;
18334;SDS011;9293;49.524;10.964;2023-02-13T15:38:59;18.25;;;13.77;;
18334;SDS011;9293;49.524;10.964;2023-02-13T15:41:42;15.27;;;11.95;;
18334;SDS011;9293;49.524;10.964;2023-02-13T15:44:17;16.58;;;13.00;;
18334;SDS011;9293;49.524;10.964;2023-02-13T15:46:55;22.77;;;16.17;;
18334;SDS011;9293;49.524;10.964;2023-02-13T15:49:38;19.02;;;14.32;;
18334;SDS011;9293;49.524;10.964;2023-02-13T15:52:14;19.05;;;13.63;;
18334;SDS011;9293;49.524;10.964;2023-02-13T15:54:48;16.98;;;13.93;;
18334;SDS011;9293;49.524;10.964;2023-02-13T15:57:18;18.50;;;13.13;;
18334;SDS011;9293;49.524;10.964;2023-02-13T15:59:48;15.90;;;13.25;;
18334;SDS011;9293;49.524;10.964;2023-02-13T16:02:17;16.90;;;13.13;;
18334;SDS011;9293;49.524;10.964;2023-02-13T16:04:48;16.67;;;12.77;;
18334;SDS011;9293;49.524;10.964;2023-02-13T16:07:18;16.98;;;12.98;;
18334;SDS011;9293;49.524;10.964;2023-02-13T16:09:46;18.48;;;14.10;;
18334;SDS011;9293;49.524;10.964;2023-02-13T16:12:18;19.83;;;13.77;;
18334;SDS011;9293;49.524;10.964;2023-02-13T16:17:25;20.02;;;14.45;;
18334;SDS011;9293;49.524;10.964;2023-02-13T16:25:29;19.67;;;14.02;;
18334;SDS011;9293;49.524;10.964;2023-02-13T16:28:17;20.48;;;14.52;;
18334;SDS011;9293;49.524;10.964;2023-02-13T16:30:59;19.30;;;14.15;;
18334;SDS011;9293;49.524;10.964;2023-02-13T16:33:34;19.88;;;14.43;;
18334;SDS011;9293;49.524;10.964;2023-02-13T16:38:40;21.08;;;15.27;;
18334;SDS011;9293;49.524;10.964;2023-02-13T16:44:04;24.67;;;14.43;;
18334;SDS011;9293;49.524;10.964;2023-02-13T16:51:58;16.65;;;12.82;;
18334;SDS011;9293;49.524;10.964;2023-02-13T17:00:03;17.77;;;12.00;;
18334;SDS011;9293;49.524;10.964;2023-02-13T17:02:35;17.00;;;11.70;;
18334;SDS011;9293;49.524;10.964;2023-02-13T17:05:14;20.02;;;12.70;;
18334;SDS011;9293;49.524;10.964;2023-02-13T17:07:50;15.85;;;11.45;;
18334;SDS011;9293;49.524;10.964;2023-02-13T17:15:44;17.83;;;12.32;;
18334;SDS011;9293;49.524;10.964;2023-02-13T17:18:13;15.38;;;11.20;;
18334;SDS011;9293;49.524;10.964;2023-02-13T17:20:42;16.00;;;11.35;;
18334;SDS011;9293;49.524;10.964;2023-02-13T17:23:21;19.48;;;11.75;;
18334;SDS011;9293;49.524;10.964;2023-02-13T17:25:51;17.83;;;11.50;;
18334;SDS011;9293;49.524;10.964;2023-02-13T17:28:21;16.42;;;11.43;;
18334;SDS011;9293;49.524;10.964;2023-02-13T17:30:51;20.25;;;11.77;;
18334;SDS011;9293;49.524;10.964;2023-02-13T17:33:24;17.30;;;12.43;;
18334;SDS011;9293;49.524;10.964;2023-02-13T17:35:53;19.40;;;12.55;;
18334;SDS011;9293;49.524;10.964;2023-02-13T17:38:21;18.95;;;12.32;;
18334;SDS011;9293;49.524;10.964;2023-02-13T17:40:52;17.83;;;12.00;;
18334;SDS011;9293;49.524;10.964;2023-02-13T17:43:20;22.15;;;14.15;;
18334;SDS011;9293;49.524;10.964;2023-02-13T17:45:49;21.23;;;15.07;;
18334;SDS011;9293;49.524;10.964;2023-02-13T17:48:17;18.92;;;13.07;;
18334;SDS011;9293;49.524;10.964;2023-02-13T17:50:45;17.40;;;12.07;;
18334;SDS011;9293;49.524;10.964;2023-02-13T17:53:22;16.88;;;12.10;;
18334;SDS011;9293;49.524;10.964;2023-02-13T17:55:53;19.92;;;12.27;;
18334;SDS011;9293;49.524;10.964;2023-02-13T17:58:21;18.05;;;11.45;;
18334;SDS011;9293;49.524;10.964;2023-02-13T18:00:49;18.13;;;11.13;;
18334;SDS011;9293;49.524;10.964;2023-02-13T18:03:17;20.52;;;11.88;;
18334;SDS011;9293;49.524;10.964;2023-02-13T18:05:45;18.58;;;11.18;;
18334;SDS011;9293;49.524;10.964;2023-02-13T18:08:15;18.27;;;12.18;;
18334;SDS011;9293;49.524;10.964;2023-02-13T18:10:42;18.20;;;11.98;;
18334;SDS011;9293;49.524;10.964;2023-02-13T18:13:10;19.38;;;12.40;;
18334;SDS011;9293;49.524;10.964;2023-02-13T18:15:39;15.77;;;11.10;;
18334;SDS011;9293;49.524;10.964;2023-02-13T18:18:11;19.17;;;12.10;;
18334;SDS011;9293;49.524;10.964;2023-02-13T18:20:42;17.92;;;12.00;;
18334;SDS011;9293;49.524;10.964;2023-02-13T18:23:11;17.10;;;12.85;;
18334;SDS011;9293;49.524;10.964;2023-02-13T18:25:40;20.60;;;14.07;;
18334;SDS011;9293;49.524;10.964;2023-02-13T18:28:08;20.40;;;13.32;;
18334;SDS011;9293;49.524;10.964;2023-02-13T18:30:36;21.23;;;13.55;;